createdAt,value
2023-11-09T00:01:17.341Z,3.40
2023-11-09T00:03:44.030Z,2.93
2023-11-09T00:06:12.098Z,3.20
2023-11-09T00:08:41.466Z,3.80
2023-11-09T00:11:08.119Z,3.63
2023-11-09T00:13:34.799Z,3.47
2023-11-09T00:16:01.439Z,4.97
2023-11-09T00:18:28.098Z,4.03
2023-11-09T00:20:54.667Z,3.63
2023-11-09T00:23:21.539Z,3.40
2023-11-09T00:25:48.741Z,3.70
2023-11-09T00:28:16.354Z,4.10
2023-11-09T00:30:44.280Z,4.10
2023-11-09T00:33:11.444Z,3.40
2023-11-09T00:35:38.558Z,3.60
2023-11-09T00:38:07.391Z,3.77
2023-11-09T00:40:34.114Z,3.60
2023-11-09T00:43:00.742Z,3.40
2023-11-09T00:45:27.570Z,4.80
2023-11-09T00:47:54.280Z,3.70
2023-11-09T00:50:21.238Z,3.80
2023-11-09T00:52:47.864Z,4.67
2023-11-09T00:55:16.867Z,4.00
2023-11-09T00:57:44.858Z,3.20
2023-11-09T01:00:12.113Z,4.37
2023-11-09T01:02:39.931Z,3.87
2023-11-09T01:05:08.152Z,3.33
2023-11-09T01:07:35.151Z,4.93
2023-11-09T01:10:01.851Z,4.30
2023-11-09T01:12:28.654Z,4.23
2023-11-09T01:14:55.544Z,5.00
2023-11-09T01:17:22.389Z,4.77
2023-11-09T01:19:49.251Z,4.80
2023-11-09T01:22:16.011Z,4.07
2023-11-09T01:24:42.719Z,3.43
2023-11-09T01:27:09.306Z,5.10
2023-11-09T01:29:36.012Z,4.40
2023-11-09T01:32:02.826Z,4.50
2023-11-09T01:34:29.480Z,3.53
2023-11-09T01:36:56.105Z,4.87
2023-11-09T01:39:25.484Z,3.90
2023-11-09T01:41:52.034Z,4.47
2023-11-09T01:44:18.827Z,4.07
2023-11-09T01:46:47.619Z,3.40
2023-11-09T01:49:14.773Z,4.70
2023-11-09T01:51:44.323Z,3.63
2023-11-09T01:54:11.750Z,3.80
2023-11-09T01:56:38.316Z,3.40
2023-11-09T01:59:05.364Z,3.17
2023-11-09T02:01:33.444Z,4.70
2023-11-09T02:04:00.937Z,3.83
2023-11-09T02:06:27.886Z,3.33
2023-11-09T02:08:54.486Z,5.00
2023-11-09T02:11:21.054Z,3.67
2023-11-09T02:13:48.006Z,4.07
2023-11-09T02:16:14.728Z,3.80
2023-11-09T02:18:42.063Z,3.23
2023-11-09T02:21:08.874Z,4.30
2023-11-09T02:23:36.947Z,4.53
2023-11-09T02:26:03.773Z,2.80
2023-11-09T02:28:32.332Z,4.00
2023-11-09T02:30:58.954Z,3.83
2023-11-09T02:33:25.632Z,2.97
2023-11-09T02:35:52.233Z,3.80
2023-11-09T02:38:18.755Z,3.83
2023-11-09T02:40:45.359Z,2.70
2023-11-09T02:43:12.017Z,4.23
2023-11-09T02:45:38.870Z,3.93
2023-11-09T02:48:05.805Z,3.00
2023-11-09T02:50:32.481Z,4.17
2023-11-09T02:52:59.027Z,3.73
2023-11-09T02:55:25.654Z,2.83
2023-11-09T02:57:52.315Z,3.00
2023-11-09T03:00:19.246Z,3.50
2023-11-09T03:02:45.827Z,2.77
2023-11-09T03:05:12.602Z,3.60
2023-11-09T03:07:39.493Z,3.70
2023-11-09T03:10:06.682Z,2.73
2023-11-09T03:12:33.336Z,2.90
2023-11-09T03:14:59.994Z,3.80
2023-11-09T03:17:26.672Z,2.93
2023-11-09T03:19:53.305Z,2.70
2023-11-09T03:22:21.105Z,3.30
2023-11-09T03:24:47.698Z,3.50
2023-11-09T03:27:14.289Z,4.20
2023-11-09T03:29:40.972Z,3.07
2023-11-09T03:32:09.686Z,2.10
2023-11-09T03:34:36.363Z,3.40
2023-11-09T03:37:03.086Z,3.40
2023-11-09T03:39:29.800Z,3.00
2023-11-09T03:41:56.378Z,4.60
2023-11-09T03:44:22.959Z,3.30
2023-11-09T03:46:52.553Z,2.73
2023-11-09T03:49:20.749Z,3.80
2023-11-09T03:51:47.523Z,3.67
2023-11-09T03:54:14.059Z,3.67
2023-11-09T03:56:40.636Z,3.10
2023-11-09T03:59:07.157Z,4.03
2023-11-09T04:01:33.750Z,3.83
2023-11-09T04:04:00.739Z,3.67
2023-11-09T04:06:27.511Z,4.10
2023-11-09T04:08:55.161Z,4.63
2023-11-09T04:11:22.202Z,3.27
2023-11-09T04:13:48.955Z,3.30
2023-11-09T04:16:15.517Z,4.70
2023-11-09T04:18:42.494Z,3.17
2023-11-09T04:21:11.171Z,3.67
2023-11-09T04:23:38.677Z,4.13
2023-11-09T04:26:13.944Z,5.53
2023-11-09T04:28:40.659Z,3.90
2023-11-09T04:31:08.765Z,3.00
2023-11-09T04:33:36.668Z,5.30
2023-11-09T04:36:10.249Z,3.43
2023-11-09T04:38:38.940Z,4.20
2023-11-09T04:41:10.697Z,3.03
2023-11-09T04:43:38.723Z,4.00
2023-11-09T04:46:12.165Z,3.20
2023-11-09T04:48:45.881Z,3.80
2023-11-09T04:51:21.787Z,4.07
2023-11-09T04:53:52.750Z,3.80
2023-11-09T04:56:41.994Z,3.87
2023-11-09T04:59:27.173Z,4.53
2023-11-09T05:02:17.375Z,3.73
2023-11-09T05:05:03.021Z,2.97
2023-11-09T05:07:29.862Z,4.27
2023-11-09T05:09:59.720Z,3.70
2023-11-09T05:12:26.372Z,3.73
2023-11-09T05:14:53.470Z,4.20
2023-11-09T05:17:21.098Z,3.80
2023-11-09T05:19:48.200Z,2.90
2023-11-09T05:22:15.042Z,3.37
2023-11-09T05:24:45.694Z,3.33
2023-11-09T05:27:12.721Z,4.00
2023-11-09T05:29:40.024Z,3.73
2023-11-09T05:32:10.026Z,3.67
2023-11-09T05:34:37.537Z,3.80
2023-11-09T05:37:04.658Z,3.60
2023-11-09T05:39:31.889Z,3.30
2023-11-09T05:42:00.585Z,3.90
2023-11-09T05:44:28.394Z,3.23
2023-11-09T05:46:58.419Z,4.90
2023-11-09T05:49:25.277Z,3.20
2023-11-09T05:51:52.786Z,5.90
2023-11-09T05:54:19.568Z,3.80
2023-11-09T05:56:46.882Z,3.17
2023-11-09T05:59:16.496Z,4.90
2023-11-09T06:01:44.233Z,3.10
2023-11-09T06:04:11.063Z,3.37
2023-11-09T06:06:38.918Z,4.30
2023-11-09T06:09:07.771Z,3.10
2023-11-09T06:11:35.744Z,3.83
2023-11-09T06:14:05.281Z,3.53
2023-11-09T06:16:32.629Z,4.57
2023-11-09T06:18:59.456Z,3.67
2023-11-09T06:21:26.205Z,3.20
2023-11-09T06:23:53.774Z,3.60
2023-11-09T06:26:23.668Z,3.40
2023-11-09T06:28:53.938Z,3.50
2023-11-09T06:31:24.033Z,3.70
2023-11-09T06:33:55.046Z,3.03
2023-11-09T06:36:22.395Z,3.80
2023-11-09T06:38:49.354Z,3.33
2023-11-09T06:41:16.517Z,4.70
2023-11-09T06:43:43.519Z,3.10
2023-11-09T06:46:10.287Z,3.00
2023-11-09T06:48:37.343Z,4.53
2023-11-09T06:51:05.009Z,3.40
2023-11-09T06:53:31.798Z,4.53
2023-11-09T06:55:58.454Z,4.50
2023-11-09T06:58:25.995Z,3.70
2023-11-09T07:00:52.820Z,4.10
2023-11-09T07:03:21.129Z,3.93
2023-11-09T07:05:48.428Z,3.20
2023-11-09T07:08:15.265Z,5.67
2023-11-09T07:10:42.545Z,4.97
2023-11-09T07:13:09.385Z,4.57
2023-11-09T07:15:36.111Z,4.87
2023-11-09T14:58:15.979Z,4.87
2023-11-09T15:00:46.757Z,4.60
2023-11-09T15:03:27.764Z,4.60
2023-11-09T15:05:59.082Z,4.80
2023-11-09T15:08:28.909Z,4.30
2023-11-09T15:10:58.015Z,4.37
2023-11-09T15:13:25.555Z,4.07
2023-11-09T15:15:54.723Z,5.87
2023-11-09T15:18:22.821Z,4.20
2023-11-09T15:20:50.057Z,5.70
2023-11-09T15:23:16.664Z,5.07
2023-11-09T15:25:48.674Z,5.17
2023-11-09T15:28:15.779Z,6.13
2023-11-09T15:30:43.064Z,5.90
2023-11-09T15:33:17.059Z,5.93
2023-11-09T15:35:47.311Z,6.20
2023-11-09T15:38:14.896Z,7.13
2023-11-09T15:41:15.148Z,7.10
2023-11-09T15:43:38.717Z,7.40
2023-11-09T15:46:12.535Z,7.80
2023-11-09T15:48:46.557Z,7.70
2023-11-09T15:51:20.230Z,6.93
2023-11-09T15:53:47.919Z,8.00
2023-11-09T15:56:16.029Z,7.10
2023-11-09T15:58:43.423Z,6.50
2023-11-09T16:01:10.833Z,5.70
2023-11-09T16:03:37.845Z,6.43
2023-11-09T16:06:04.745Z,6.40
2023-11-09T16:08:31.403Z,5.30
2023-11-09T16:10:58.759Z,6.73
2023-11-09T16:13:26.068Z,6.90
2023-11-09T16:15:52.918Z,6.80
2023-11-09T16:18:21.307Z,7.30
2023-11-09T16:20:47.863Z,5.77
2023-11-09T16:23:17.445Z,6.80
2023-11-09T16:25:47.758Z,7.43
2023-11-09T16:28:21.313Z,7.07
2023-11-09T16:30:48.290Z,6.40
2023-11-09T16:33:15.102Z,7.33
2023-11-09T16:35:42.402Z,6.93
2023-11-09T16:38:10.466Z,6.20
2023-11-09T16:40:39.779Z,7.40
2023-11-09T16:43:07.174Z,6.17
2023-11-09T16:45:33.897Z,6.93
2023-11-09T16:48:00.504Z,6.80
2023-11-09T16:50:27.567Z,7.73
2023-11-09T16:52:54.322Z,8.20
2023-11-09T16:55:21.020Z,8.13
2023-11-09T16:57:47.719Z,7.17
2023-11-09T17:00:24.388Z,6.93
2023-11-09T17:02:51.742Z,6.30
2023-11-09T17:05:19.057Z,7.47
2023-11-09T17:07:47.139Z,8.03
2023-11-09T17:10:14.713Z,7.67
2023-11-09T17:12:41.897Z,6.17
2023-11-09T17:15:11.185Z,6.70
2023-11-09T17:17:38.921Z,8.73
2023-11-09T17:20:11.110Z,6.70
2023-11-09T17:22:38.242Z,6.27
2023-11-09T17:25:05.780Z,6.30
2023-11-09T17:27:32.429Z,6.07
2023-11-09T17:29:59.542Z,6.10
2023-11-09T17:32:26.362Z,5.23
2023-11-09T17:34:53.114Z,6.77
2023-11-09T17:37:19.735Z,5.73
2023-11-09T17:39:46.680Z,6.33
2023-11-09T17:42:13.376Z,5.50
2023-11-09T17:44:43.131Z,5.50
2023-11-09T17:47:09.904Z,5.20
2023-11-09T17:49:36.719Z,6.20
2023-11-09T17:52:03.901Z,6.00
2023-11-09T17:54:30.804Z,7.00
2023-11-09T17:56:59.746Z,7.77
2023-11-09T17:59:26.685Z,5.70
2023-11-09T18:01:54.052Z,5.60
2023-11-09T18:04:21.780Z,8.27
2023-11-09T18:06:48.682Z,10.27
2023-11-09T18:09:18.045Z,7.70
2023-11-09T18:11:45.369Z,6.80
2023-11-09T18:14:16.631Z,6.90
2023-11-09T18:16:44.357Z,9.03
2023-11-09T18:19:15.046Z,8.50
2023-11-09T18:21:42.460Z,8.20
2023-11-09T18:24:10.154Z,7.57
2023-11-09T18:26:36.863Z,9.50
2023-11-09T18:29:03.879Z,8.30
2023-11-09T18:31:30.732Z,8.37
2023-11-09T18:33:57.408Z,10.00
2023-11-09T18:36:24.002Z,10.20
2023-11-09T18:38:50.579Z,13.53
2023-11-09T18:41:18.746Z,12.27
2023-11-09T18:43:45.871Z,11.83
2023-11-09T18:46:12.750Z,8.37
2023-11-09T18:48:39.352Z,8.30
2023-11-09T18:51:08.965Z,7.63
2023-11-09T18:53:36.700Z,10.40
2023-11-09T18:56:04.086Z,9.40
2023-11-09T18:58:30.906Z,8.50
2023-11-09T19:00:58.538Z,8.70
2023-11-09T19:05:55.687Z,8.60
2023-11-09T19:08:22.532Z,7.23
2023-11-09T19:10:49.800Z,5.60
2023-11-09T19:13:17.799Z,7.50
2023-11-09T19:15:44.604Z,7.57
2023-11-09T19:18:11.406Z,5.27
2023-11-09T19:23:08.502Z,13.43
2023-11-09T19:25:35.154Z,10.13
2023-11-09T19:28:03.220Z,6.77
2023-11-09T19:30:29.989Z,4.73
2023-11-09T19:32:56.834Z,9.10
2023-11-09T19:35:23.649Z,5.20
2023-11-09T19:37:50.485Z,5.23
2023-11-09T19:40:17.127Z,4.60
2023-11-09T19:42:43.788Z,5.70
2023-11-09T19:45:10.625Z,5.40
2023-11-09T19:47:37.701Z,6.73
2023-11-09T19:50:04.550Z,5.57
2023-11-09T19:52:32.120Z,5.07
2023-11-09T19:54:58.852Z,7.67
2023-11-09T19:57:25.516Z,8.40
2023-11-09T19:59:52.157Z,7.60
2023-11-09T20:02:21.414Z,8.00
2023-11-09T20:04:48.044Z,7.00
2023-11-09T20:07:15.661Z,9.10
2023-11-09T20:09:42.360Z,6.93
2023-11-09T20:12:09.496Z,8.20
2023-11-09T20:14:36.724Z,9.93
2023-11-09T20:17:03.903Z,7.90
2023-11-09T20:19:31.876Z,7.20
2023-11-09T20:21:58.499Z,8.80
2023-11-09T20:24:25.232Z,8.47
2023-11-09T20:26:56.113Z,7.03
2023-11-09T20:29:22.885Z,7.43
2023-11-09T20:31:49.688Z,6.87
2023-11-09T20:34:16.400Z,6.13
2023-11-09T20:36:43.113Z,6.90
2023-11-09T20:39:12.686Z,6.13
2023-11-09T20:41:40.635Z,6.33
2023-11-09T20:44:10.236Z,6.73
2023-11-09T20:46:37.576Z,6.63
2023-11-09T20:49:04.495Z,7.03
2023-11-09T20:51:31.261Z,5.67
2023-11-09T20:53:57.855Z,7.80
2023-11-09T20:56:24.902Z,8.27
2023-11-09T20:58:51.596Z,8.30
2023-11-09T21:01:18.287Z,9.10
2023-11-09T21:03:46.028Z,7.77
2023-11-09T21:06:12.916Z,6.10
2023-11-09T21:08:39.692Z,6.40
2023-11-09T21:11:06.904Z,5.70
2023-11-09T21:13:37.547Z,6.40
2023-11-09T21:16:05.028Z,5.73
2023-11-09T21:18:32.834Z,5.47
2023-11-09T21:21:02.867Z,6.83
2023-11-09T21:23:29.803Z,4.53
2023-11-09T21:25:57.105Z,5.50
2023-11-09T21:28:24.317Z,5.60
2023-11-09T21:30:51.805Z,5.57
2023-11-09T21:33:19.534Z,6.10
2023-11-09T21:35:47.274Z,6.80
2023-11-09T21:38:14.314Z,8.27
2023-11-09T21:40:41.150Z,8.13
2023-11-09T21:43:08.075Z,6.67
2023-11-09T21:45:35.212Z,6.40
2023-11-09T21:48:03.273Z,6.20
2023-11-09T21:50:30.303Z,7.87
2023-11-09T21:52:58.427Z,8.70
2023-11-09T21:55:27.181Z,8.30
2023-11-09T21:57:54.033Z,9.20
2023-11-09T22:00:21.186Z,7.47
2023-11-09T22:02:48.550Z,8.47
2023-11-09T22:05:16.125Z,9.63
2023-11-09T22:07:42.701Z,8.30
2023-11-09T22:10:13.370Z,6.67
2023-11-09T22:12:40.450Z,8.90
2023-11-09T22:15:10.036Z,8.87
2023-11-09T22:17:36.725Z,8.97
2023-11-09T22:20:03.411Z,7.00
2023-11-09T22:22:30.848Z,7.57
2023-11-09T22:24:57.548Z,7.57
2023-11-09T22:27:24.340Z,7.83
2023-11-09T22:29:53.598Z,6.87
2023-11-09T22:32:20.261Z,6.43
2023-11-09T22:34:46.932Z,5.70
2023-11-09T22:37:13.545Z,4.73
2023-11-09T22:39:40.108Z,5.70
2023-11-09T22:42:10.112Z,6.83
2023-11-09T22:44:37.385Z,6.57
2023-11-09T22:47:04.726Z,6.43
2023-11-09T22:49:31.671Z,5.03
2023-11-09T22:51:58.699Z,7.43
2023-11-09T22:54:25.587Z,6.97
2023-11-09T22:56:52.831Z,6.63
2023-11-09T22:59:20.214Z,7.00
2023-11-09T23:01:47.001Z,16.50
2023-11-09T23:04:14.566Z,6.80
2023-11-09T23:06:41.306Z,7.10
2023-11-09T23:09:08.588Z,6.23
2023-11-09T23:11:35.362Z,7.47
2023-11-09T23:14:02.921Z,5.83
2023-11-09T23:16:29.652Z,5.43
2023-11-09T23:18:57.347Z,6.20
2023-11-09T23:21:24.533Z,5.80
2023-11-09T23:23:51.225Z,4.90
2023-11-09T23:26:17.925Z,6.23
2023-11-09T23:28:45.787Z,5.53
2023-11-09T23:31:12.910Z,5.27
2023-11-09T23:33:41.119Z,5.10
2023-11-09T23:36:14.691Z,7.67
2023-11-09T23:38:42.160Z,6.43
2023-11-09T23:41:10.002Z,5.00
2023-11-09T23:43:39.929Z,4.57
2023-11-09T23:46:07.725Z,5.30
2023-11-09T23:48:34.628Z,6.27
2023-11-09T23:51:01.229Z,6.60
2023-11-09T23:53:32.362Z,5.67
2023-11-09T23:55:59.002Z,6.07
2023-11-09T23:58:27.375Z,5.30
